Time;durP1;ratioP1;P1;durP2;ratioP2;P2;SDS_P1;SDS_P2;PMS_P1;PMS_P2;Temp;Humidity;BMP_temperature;BMP_pressure;BME280_temperature;BME280_humidity;BME280_pressure;Samples;Min_cycle;Max_cycle;Signal;HPM_P1;HPM_P2
2022/10/08 00:00:46;;;;;;;;;;;;;;;;;;5022624;28;19923;-34
2022/10/08 00:03:11;;;;;;;;;;;;;;;;;;5023799;28;19916;-34
2022/10/08 00:05:36;;;;;;;;;;;;;;;;;;5018337;28;20007;-34
2022/10/08 00:08:01;;;;;;;;;;;;;;;;;;5018239;28;19921;-34
2022/10/08 00:10:26;;;;;;;;;;;;;;;;;;5019327;28;19918;-34
2022/10/08 00:12:51;;;;;;;;;;;;;;;;;;5021391;28;20271;-34
2022/10/08 00:15:17;;;;;;;;;;;;;;;;;;5018696;28;19925;-34
2022/10/08 00:17:42;;;;;;;;;;;;;;;;;;5014146;28;19931;-34
2022/10/08 00:20:08;;;;;;;;;;;;;;;;;;5019786;28;20016;-34
2022/10/08 00:22:33;;;;;;;;;;;;;;;;;;5018729;28;20290;-34
2022/10/08 00:24:58;;;;;;;;;;;;;;;;;;5018274;28;19917;-34
2022/10/08 00:27:24;;;;;;;;;;;;;;;;;;5015129;28;19917;-34
2022/10/08 00:29:50;;;;;;;;;;;;;;;;;;5018189;28;20008;-34
2022/10/08 00:32:18;;;;;;;;;;;;;;;;;;5018971;28;19959;-34
2022/10/08 00:34:43;;;;;;;;;;;;;;;;;;5017478;28;19955;-34
2022/10/08 00:37:08;;;;;;;;;;;;;;;;;;5020046;28;19913;-34
2022/10/08 00:39:34;;;;;;;;;;;;;;;;;;5016056;28;20149;-34
2022/10/08 00:42:01;;;;;;;;;;;;;;;;;;5019819;28;20278;-34
2022/10/08 00:44:26;;;;;;;;;;;;;;;;;;5017857;28;19995;-34
2022/10/08 00:46:53;;;;;;;;;;;;;;;;;;5020816;28;19920;-33
2022/10/08 00:49:18;;;;;;;;;;;;;;;;;;5022080;28;20282;-34
2022/10/08 00:51:43;;;;;;;;;;;;;;;;;;5019933;28;19917;-34
2022/10/08 00:54:08;;;;;;;;;;;;;;;;;;5015915;28;19921;-34
2022/10/08 00:56:33;;;;;;;;;;;;;;;;;;5021828;28;19955;-34
2022/10/08 00:58:58;;;;;;;;;;;;;;;;;;5020947;28;19924;-33
2022/10/08 01:01:23;;;;;;;;;;;;;;;;;;5022519;28;19919;-33
2022/10/08 01:03:49;;;;;;;;;;;;;;;;;;5017790;28;19952;-34
2022/10/08 01:06:14;;;;;;;;;;;;;;;;;;5018502;28;19996;-34
2022/10/08 01:08:40;;;;;;;;;;;;;;;;;;5021170;28;19921;-34
2022/10/08 01:11:05;;;;;;;;;;;;;;;;;;5020470;28;19913;-34
2022/10/08 01:13:30;;;;;;;;;;;;;;;;;;5020440;28;19913;-34
2022/10/08 01:15:55;;;;;;;;;;;;;;;;;;5021091;28;19983;-34
2022/10/08 01:18:21;;;;;;;;;;;;;;;;;;5020561;28;19917;-34
2022/10/08 01:20:46;;;;;;;;;;;;;;;;;;5019587;28;19921;-34
2022/10/08 01:23:11;;;;;;;;;;;;;;;;;;5018972;28;19917;-34
2022/10/08 01:25:36;;;;;;;;;;;;;;;;;;5017290;28;19921;-34
2022/10/08 01:28:02;;;;;;;;;;;;;;;;;;5019354;28;19913;-34
2022/10/08 01:30:27;;;;;;;;;;;;;;;;;;5020352;28;19924;-34
2022/10/08 01:32:52;;;;;;;;;;;;;;;;;;5020110;28;20811;-34
2022/10/08 01:35:19;;;;;;;;;;;;;;;;;;5017360;28;20425;-34
2022/10/08 01:37:44;;;;;;;;;;;;;;;;;;5020453;28;20007;-34
2022/10/08 01:40:09;;;;;;;;;;;;;;;;;;5021864;28;20003;-34
2022/10/08 01:42:34;;;;;;;;;;;;;;;;;;5020006;28;19917;-34
2022/10/08 01:44:59;;;;;;;;;;;;;;;;;;5023992;28;19913;-34
2022/10/08 01:47:26;;;;;;;;;;;;;;;;;;5023272;28;19930;-34
2022/10/08 01:49:51;;;;;;;;;;;;;;;;;;5023665;28;19917;-34
2022/10/08 01:52:17;;;;;;;;;;;;;;;;;;5017630;28;19943;-34
2022/10/08 01:54:42;;;;;;;;;;;;;;;;;;5022131;28;19943;-34
2022/10/08 01:57:09;;;;;;;;;;;;;;;;;;5023795;28;19921;-33
2022/10/08 01:59:34;;;;;;;;;;;;;;;;;;5021437;28;19925;-34
2022/10/08 02:01:59;;;;;;;;;;;;;;;;;;5023261;28;19924;-34
2022/10/08 02:04:34;;;;;;;;;;;;;;;;;;5022517;28;19913;-34
2022/10/08 02:06:59;;;;;;;;;;;;;;;;;;5025016;28;20373;-34
2022/10/08 02:09:24;;;;;;;;;;;;;;;;;;5021950;28;20022;-34
2022/10/08 02:11:49;;;;;;;;;;;;;;;;;;5022090;28;19921;-34
2022/10/08 02:14:14;;;;;;;;;;;;;;;;;;5024021;28;20008;-34
2022/10/08 02:16:39;;;;;;;;;;;;;;;;;;5022593;28;20141;-33
2022/10/08 02:19:05;;;;;;;;;;;;;;;;;;5024554;28;20283;-34
2022/10/08 02:21:31;;;;;;;;;;;;;;;;;;5021000;28;19913;-34
2022/10/08 02:23:56;;;;;;;;;;;;;;;;;;5021549;28;20008;-34
2022/10/08 02:26:22;;;;;;;;;;;;;;;;;;5016895;28;20027;-34
2022/10/08 02:28:47;;;;;;;;;;;;;;;;;;5021716;28;20002;-34
2022/10/08 02:31:13;;;;;;;;;;;;;;;;;;5019675;28;19940;-34
2022/10/08 02:33:38;;;;;;;;;;;;;;;;;;5018908;28;19932;-33
2022/10/08 02:36:03;;;;;;;;;;;;;;;;;;5018824;28;19928;-34
2022/10/08 02:38:28;;;;;;;;;;;;;;;;;;5019715;28;20021;-34
2022/10/08 02:40:53;;;;;;;;;;;;;;;;;;5024339;28;19927;-34
2022/10/08 02:43:18;;;;;;;;;;;;;;;;;;5020062;28;19920;-34
2022/10/08 02:45:45;;;;;;;;;;;;;;;;;;5023028;28;20175;-34
2022/10/08 02:48:10;;;;;;;;;;;;;;;;;;5020932;28;19913;-34
2022/10/08 02:50:36;;;;;;;;;;;;;;;;;;5020100;28;19913;-34
2022/10/08 02:53:01;;;;;;;;;;;;;;;;;;5021281;28;19921;-34
2022/10/08 02:55:26;;;;;;;;;;;;;;;;;;5021262;28;20048;-34
2022/10/08 02:57:52;;;;;;;;;;;;;;;;;;5016156;28;19913;-34
2022/10/08 03:00:17;;;;;;;;;;;;;;;;;;5022024;28;19929;-33
2022/10/08 03:02:42;;;;;;;;;;;;;;;;;;5024328;28;19919;-34
2022/10/08 03:05:07;;;;;;;;;;;;;;;;;;5022542;28;20406;-34
2022/10/08 03:07:32;;;;;;;;;;;;;;;;;;5021888;28;19913;-34
2022/10/08 03:09:58;;;;;;;;;;;;;;;;;;5023714;28;19928;-34
2022/10/08 03:12:23;;;;;;;;;;;;;;;;;;5023578;28;19913;-34
2022/10/08 03:14:49;;;;;;;;;;;;;;;;;;5022895;28;19925;-33
2022/10/08 03:17:14;;;;;;;;;;;;;;;;;;5024145;28;19943;-34
2022/10/08 03:19:39;;;;;;;;;;;;;;;;;;5026644;28;19913;-33
2022/10/08 03:22:05;;;;;;;;;;;;;;;;;;5026060;28;19913;-33
2022/10/08 03:24:30;;;;;;;;;;;;;;;;;;5026259;28;19948;-34
2022/10/08 03:26:55;;;;;;;;;;;;;;;;;;5024032;28;19917;-34
2022/10/08 03:29:20;;;;;;;;;;;;;;;;;;5027619;28;19913;-34
2022/10/08 03:31:45;;;;;;;;;;;;;;;;;;5025742;28;20313;-34
2022/10/08 03:34:10;;;;;;;;;;;;;;;;;;5028175;28;19921;-34
2022/10/08 03:36:35;;;;;;;;;;;;;;;;;;5017701;28;20444;-34
2022/10/08 03:39:01;;;;;;;;;;;;;;;;;;5020198;28;19925;-34
2022/10/08 03:41:26;;;;;;;;;;;;;;;;;;5021337;28;20153;-33
2022/10/08 03:43:51;;;;;;;;;;;;;;;;;;5022073;28;20069;-34
2022/10/08 03:46:16;;;;;;;;;;;;;;;;;;5021064;28;20482;-34
2022/10/08 03:48:41;;;;;;;;;;;;;;;;;;5022725;28;19913;-34
2022/10/08 03:51:07;;;;;;;;;;;;;;;;;;5022639;28;20291;-34
2022/10/08 03:53:32;;;;;;;;;;;;;;;;;;5021563;28;19921;-33
2022/10/08 03:55:57;;;;;;;;;;;;;;;;;;5021583;28;19921;-34
2022/10/08 03:58:22;;;;;;;;;;;;;;;;;;5021199;28;19917;-34
2022/10/08 04:00:47;;;;;;;;;;;;;;;;;;5023777;28;19917;-34
2022/10/08 04:03:12;;;;;;;;;;;;;;;;;;5025629;28;19913;-34
2022/10/08 04:05:37;;;;;;;;;;;;;;;;;;5023787;28;19921;-34
2022/10/08 04:08:03;;;;;;;;;;;;;;;;;;5025808;28;19917;-34
2022/10/08 04:10:28;;;;;;;;;;;;;;;;;;5021983;28;20000;-34
2022/10/08 04:12:53;;;;;;;;;;;;;;;;;;5024384;28;19917;-34
2022/10/08 04:15:19;;;;;;;;;;;;;;;;;;5020564;28;20432;-34
2022/10/08 04:17:44;;;;;;;;;;;;;;;;;;5017023;28;19913;-34
2022/10/08 04:20:09;;;;;;;;;;;;;;;;;;5023961;28;20016;-34
2022/10/08 04:22:34;;;;;;;;;;;;;;;;;;5019481;28;19913;-34
2022/10/08 04:24:59;;;;;;;;;;;;;;;;;;5024098;28;19947;-34
2022/10/08 04:27:24;;;;;;;;;;;;;;;;;;5025362;28;19991;-33
2022/10/08 04:29:49;;;;;;;;;;;;;;;;;;5021212;28;19991;-34
2022/10/08 04:32:15;;;;;;;;;;;;;;;;;;5018117;28;19969;-34
2022/10/08 04:34:40;;;;;;;;;;;;;;;;;;5021876;28;19917;-33
2022/10/08 04:37:05;;;;;;;;;;;;;;;;;;5018521;28;19917;-34
2022/10/08 04:39:30;;;;;;;;;;;;;;;;;;5023842;28;19964;-34
2022/10/08 04:41:55;;;;;;;;;;;;;;;;;;5019845;28;19921;-34
2022/10/08 04:44:20;;;;;;;;;;;;;;;;;;5022572;28;19917;-33
2022/10/08 04:46:45;;;;;;;;;;;;;;;;;;5021604;28;20009;-34
2022/10/08 04:49:11;;;;;;;;;;;;;;;;;;5017449;28;20404;-34
2022/10/08 04:51:36;;;;;;;;;;;;;;;;;;5021290;28;19920;-34
2022/10/08 04:54:01;;;;;;;;;;;;;;;;;;5023038;28;19987;-34
2022/10/08 04:56:26;;;;;;;;;;;;;;;;;;5024734;28;20337;-34
2022/10/08 04:58:53;;;;;;;;;;;;;;;;;;5023610;28;19967;-34
2022/10/08 05:01:19;;;;;;;;;;;;;;;;;;5024316;28;19947;-34
2022/10/08 05:03:44;;;;;;;;;;;;;;;;;;5023581;28;19913;-34
2022/10/08 05:06:09;;;;;;;;;;;;;;;;;;5023628;28;20375;-33
2022/10/08 05:08:34;;;;;;;;;;;;;;;;;;5026762;28;20291;-34
2022/10/08 05:10:59;;;;;;;;;;;;;;;;;;5023437;28;20462;-34
2022/10/08 05:13:24;;;;;;;;;;;;;;;;;;5025991;28;20044;-33
2022/10/08 05:15:50;;;;;;;;;;;;;;;;;;5023598;28;19917;-33
2022/10/08 05:18:15;;;;;;;;;;;;;;;;;;5024420;28;19982;-33
2022/10/08 05:20:40;;;;;;;;;;;;;;;;;;5020848;28;19917;-33
2022/10/08 05:23:05;;;;;;;;;;;;;;;;;;5021481;28;20505;-34
2022/10/08 05:25:30;;;;;;;;;;;;;;;;;;5024917;28;19913;-33
2022/10/08 05:27:57;;;;;;;;;;;;;;;;;;5022747;28;20690;-34
2022/10/08 05:30:22;;;;;;;;;;;;;;;;;;5023110;28;20298;-34
2022/10/08 05:32:48;;;;;;;;;;;;;;;;;;5023465;28;19917;-34
2022/10/08 05:35:13;;;;;;;;;;;;;;;;;;5022032;28;19923;-34
2022/10/08 05:37:38;;;;;;;;;;;;;;;;;;5024535;28;19924;-33
2022/10/08 05:40:03;;;;;;;;;;;;;;;;;;5025086;22;19933;-31
2022/10/08 05:42:28;;;;;;;;;;;;;;;;;;5006801;28;19921;-32
2022/10/08 05:44:53;;;;;;;;;;;;;;;;;;5004257;28;19940;-32
2022/10/08 05:47:19;;;;;;;;;;;;;;;;;;5006243;28;19913;-32
2022/10/08 05:49:44;;;;;;;;;;;;;;;;;;5001472;28;20363;-32
2022/10/08 05:52:09;;;;;;;;;;;;;;;;;;4998551;28;19913;-32
2022/10/08 05:54:34;;;;;;;;;;;;;;;;;;4991709;28;20338;-32
2022/10/08 05:56:59;;;;;;;;;;;;;;;;;;5002532;28;19924;-32
2022/10/08 05:59:24;;;;;;;;;;;;;;;;;;4997263;28;19984;-32
2022/10/08 06:01:50;;;;;;;;;;;;;;;;;;5002285;28;19916;-32
2022/10/08 06:04:16;;;;;;;;;;;;;;;;;;4999795;28;20367;-32
2022/10/08 06:06:41;;;;;;;;;;;;;;;;;;4999449;28;19956;-32
2022/10/08 06:09:06;;;;;;;;;;;;;;;;;;4995130;28;20394;-32
2022/10/08 06:11:31;;;;;;;;;;;;;;;;;;5002294;28;19996;-32
2022/10/08 06:13:56;;;;;;;;;;;;;;;;;;4991857;28;19920;-32
2022/10/08 06:16:21;;;;;;;;;;;;;;;;;;5002820;28;20052;-32
2022/10/08 06:18:46;;;;;;;;;;;;;;;;;;4991874;28;19917;-32
2022/10/08 06:21:12;;;;;;;;;;;;;;;;;;4998929;28;19920;-32
2022/10/08 06:23:37;;;;;;;;;;;;;;;;;;4999314;28;19953;-32
2022/10/08 06:26:02;;;;;;;;;;;;;;;;;;4998588;28;20156;-32
2022/10/08 06:28:27;;;;;;;;;;;;;;;;;;5000926;28;19953;-31
2022/10/08 06:30:52;;;;;;;;;;;;;;;;;;4997688;28;19913;-32
2022/10/08 06:33:17;;;;;;;;;;;;;;;;;;4999583;28;19924;-32
2022/10/08 06:35:43;;;;;;;;;;;;;;;;;;4999223;28;19921;-32
2022/10/08 06:38:08;;;;;;;;;;;;;;;;;;4998984;28;20275;-32
2022/10/08 06:40:38;;;;;;;;;;;;;;;;;;4999721;28;19921;-32
2022/10/08 06:43:06;;;;;;;;;;;;;;;;;;4996973;28;19917;-32
2022/10/08 06:45:31;;;;;;;;;;;;;;;;;;4997452;28;19928;-32
2022/10/08 06:47:56;;;;;;;;;;;;;;;;;;5000081;28;20299;-32
2022/10/08 06:50:21;;;;;;;;;;;;;;;;;;4997431;28;19925;-32
2022/10/08 06:52:47;;;;;;;;;;;;;;;;;;5004791;28;19920;-32
2022/10/08 06:55:12;;;;;;;;;;;;;;;;;;5003957;28;19918;-32
2022/10/08 06:57:37;;;;;;;;;;;;;;;;;;5003549;28;19921;-32
2022/10/08 07:00:03;;;;;;;;;;;;;;;;;;4995372;28;19925;-32
2022/10/08 07:02:28;;;;;;;;;;;;;;;;;;5003597;28;20429;-32
2022/10/08 07:04:53;;;;;;;;;;;;;;;;;;5000830;28;19920;-32
2022/10/08 07:07:18;;;;;;;;;;;;;;;;;;5005600;28;19953;-32
2022/10/08 07:09:43;;;;;;;;;;;;;;;;;;5004865;28;19913;-32
2022/10/08 07:12:08;;;;;;;;;;;;;;;;;;5001753;28;19914;-32
2022/10/08 07:14:34;;;;;;;;;;;;;;;;;;5004884;28;19957;-32
2022/10/08 07:16:59;;;;;;;;;;;;;;;;;;5004883;28;19920;-32
2022/10/08 07:19:24;;;;;;;;;;;;;;;;;;5001255;28;19913;-32
2022/10/08 07:21:49;;;;;;;;;;;;;;;;;;5003109;28;20283;-32
2022/10/08 07:24:14;;;;;;;;;;;;;;;;;;5005527;28;20007;-32
2022/10/08 07:26:39;;;;;;;;;;;;;;;;;;5002250;28;20148;-32
2022/10/08 07:29:05;;;;;;;;;;;;;;;;;;5003212;28;19924;-32
2022/10/08 07:31:30;;;;;;;;;;;;;;;;;;5002371;28;19948;-32
2022/10/08 07:33:55;;;;;;;;;;;;;;;;;;5002614;28;20278;-32
2022/10/08 07:36:20;;;;;;;;;;;;;;;;;;5000739;28;19921;-32
2022/10/08 07:38:46;;;;;;;;;;;;;;;;;;5002764;28;20578;-33
2022/10/08 07:41:12;;;;;;;;;;;;;;;;;;5003208;28;19925;-32
2022/10/08 07:43:39;;;;;;;;;;;;;;;;;;5001505;28;20362;-32
2022/10/08 07:46:05;;;;;;;;;;;;;;;;;;4999729;28;20370;-32
2022/10/08 07:48:30;;;;;;;;;;;;;;;;;;5003364;28;19921;-32
2022/10/08 07:50:55;;;;;;;;;;;;;;;;;;4999212;28;19917;-32
2022/10/08 07:53:20;;;;;;;;;;;;;;;;;;5001102;28;19928;-32
2022/10/08 07:55:45;;;;;;;;;;;;;;;;;;4999654;28;19924;-32
2022/10/08 07:58:11;;;;;;;;;;;;;;;;;;4998420;28;19922;-32
2022/10/08 08:00:36;;;;;;;;;;;;;;;;;;5002832;28;19913;-32
2022/10/08 08:03:01;;;;;;;;;;;;;;;;;;4996990;28;19918;-32
2022/10/08 08:05:26;;;;;;;;;;;;;;;;;;4998121;28;20402;-33
2022/10/08 08:07:51;;;;;;;;;;;;;;;;;;5001859;28;19917;-32
2022/10/08 08:10:17;;;;;;;;;;;;;;;;;;4996360;28;20355;-33
2022/10/08 08:12:42;;;;;;;;;;;;;;;;;;4999783;28;20451;-32
2022/10/08 08:15:07;;;;;;;;;;;;;;;;;;4998004;28;19925;-32
2022/10/08 08:17:32;;;;;;;;;;;;;;;;;;5000008;28;20436;-33
2022/10/08 08:19:57;;;;;;;;;;;;;;;;;;5000709;28;19953;-32
2022/10/08 08:22:22;;;;;;;;;;;;;;;;;;4996319;28;19918;-33
2022/10/08 08:24:48;;;;;;;;;;;;;;;;;;4997473;28;19914;-33
2022/10/08 08:27:13;;;;;;;;;;;;;;;;;;5000763;28;20312;-33
2022/10/08 08:29:38;;;;;;;;;;;;;;;;;;4999049;28;20521;-33
2022/10/08 08:32:04;;;;;;;;;;;;;;;;;;5001033;28;19928;-33
2022/10/08 08:34:29;;;;;;;;;;;;;;;;;;4998820;28;19964;-33
2022/10/08 08:36:54;;;;;;;;;;;;;;;;;;4998247;28;19913;-33
2022/10/08 08:39:19;;;;;;;;;;;;;;;;;;4999088;28;20315;-33
2022/10/08 08:41:44;;;;;;;;;;;;;;;;;;5001487;28;19913;-33
2022/10/08 08:44:10;;;;;;;;;;;;;;;;;;4997094;28;20868;-33
2022/10/08 08:46:35;;;;;;;;;;;;;;;;;;5004021;28;19960;-33
2022/10/08 08:49:00;;;;;;;;;;;;;;;;;;5000389;28;20806;-33
2022/10/08 08:51:25;;;;;;;;;;;;;;;;;;5002646;28;20391;-33
2022/10/08 08:53:50;;;;;;;;;;;;;;;;;;4999033;28;19964;-33
2022/10/08 08:56:15;;;;;;;;;;;;;;;;;;5002478;28;19932;-33
2022/10/08 08:58:41;;;;;;;;;;;;;;;;;;4996681;28;19917;-33
2022/10/08 09:01:06;;;;;;;;;;;;;;;;;;4996463;28;19964;-33
2022/10/08 09:03:33;;;;;;;;;;;;;;;;;;4997640;28;20513;-33
2022/10/08 09:05:58;;;;;;;;;;;;;;;;;;4998091;28;19952;-33
2022/10/08 09:08:23;;;;;;;;;;;;;;;;;;4999412;28;19952;-33
2022/10/08 09:10:49;;;;;;;;;;;;;;;;;;4990743;28;20537;-33
2022/10/08 09:13:14;;;;;;;;;;;;;;;;;;4997037;28;20411;-33
2022/10/08 09:15:39;;;;;;;;;;;;;;;;;;4998278;28;19967;-33
2022/10/08 09:18:04;;;;;;;;;;;;;;;;;;4993615;28;19925;-33
2022/10/08 09:20:29;;;;;;;;;;;;;;;;;;4999059;28;19924;-33
2022/10/08 09:22:54;;;;;;;;;;;;;;;;;;5001891;28;19913;-33
2022/10/08 09:25:20;;;;;;;;;;;;;;;;;;5000505;28;19921;-33
2022/10/08 09:27:45;;;;;;;;;;;;;;;;;;4998757;28;19921;-33
2022/10/08 09:30:10;;;;;;;;;;;;;;;;;;4998457;28;19921;-33
2022/10/08 09:32:35;;;;;;;;;;;;;;;;;;4999433;28;20027;-33
2022/10/08 09:35:00;;;;;;;;;;;;;;;;;;5003515;28;19929;-33
2022/10/08 09:37:25;;;;;;;;;;;;;;;;;;4997545;28;19917;-33
2022/10/08 09:39:50;;;;;;;;;;;;;;;;;;4998471;28;20525;-33
2022/10/08 09:42:16;;;;;;;;;;;;;;;;;;4995331;28;20450;-33
2022/10/08 09:44:41;;;;;;;;;;;;;;;;;;5000128;28;19925;-33
2022/10/08 09:47:06;;;;;;;;;;;;;;;;;;4998575;28;20016;-33
2022/10/08 09:49:32;;;;;;;;;;;;;;;;;;4994442;28;19917;-33
2022/10/08 09:51:57;;;;;;;;;;;;;;;;;;5001176;28;19918;-33
2022/10/08 09:54:22;;;;;;;;;;;;;;;;;;4997217;28;19922;-33
2022/10/08 09:56:51;;;;;;;;;;;;;;;;;;4996936;28;19917;-33
2022/10/08 09:59:16;;;;;;;;;;;;;;;;;;4998637;28;19920;-33
2022/10/08 10:01:41;;;;;;;;;;;;;;;;;;4999055;28;19922;-33
2022/10/08 10:04:06;;;;;;;;;;;;;;;;;;4999904;28;19913;-33
2022/10/08 10:06:38;;;;;;;;;;;;;;;;;;4995876;28;19917;-33
2022/10/08 10:09:03;;;;;;;;;;;;;;;;;;4997882;28;19913;-33
2022/10/08 10:11:28;;;;;;;;;;;;;;;;;;4998660;28;20473;-33
2022/10/08 10:13:53;;;;;;;;;;;;;;;;;;4997312;28;20020;-33
2022/10/08 10:16:18;;;;;;;;;;;;;;;;;;4999129;28;19922;-33
2022/10/08 10:18:43;;;;;;;;;;;;;;;;;;4997286;28;20043;-33
2022/10/08 10:21:09;;;;;;;;;;;;;;;;;;4997594;28;19929;-33
2022/10/08 10:23:34;;;;;;;;;;;;;;;;;;4996858;28;20253;-33
2022/10/08 10:25:59;;;;;;;;;;;;;;;;;;4999906;28;19914;-33
2022/10/08 10:28:24;;;;;;;;;;;;;;;;;;5000443;28;19957;-33
2022/10/08 10:30:49;;;;;;;;;;;;;;;;;;4999138;28;20367;-33
2022/10/08 10:33:14;;;;;;;;;;;;;;;;;;5007458;28;19917;-33
2022/10/08 10:35:40;;;;;;;;;;;;;;;;;;5004923;28;19971;-33
2022/10/08 10:38:05;;;;;;;;;;;;;;;;;;5002201;28;19918;-33
2022/10/08 10:40:30;;;;;;;;;;;;;;;;;;5002336;28;19971;-33
2022/10/08 10:42:55;;;;;;;;;;;;;;;;;;5004514;28;20685;-33
2022/10/08 10:45:20;;;;;;;;;;;;;;;;;;5004292;28;19969;-33
2022/10/08 10:47:45;;;;;;;;;;;;;;;;;;5007728;28;19940;-33
2022/10/08 10:50:11;;;;;;;;;;;;;;;;;;5004671;28;20009;-33
2022/10/08 10:52:36;;;;;;;;;;;;;;;;;;5006980;28;19969;-33
2022/10/08 10:55:02;;;;;;;;;;;;;;;;;;5004316;28;19969;-33
2022/10/08 10:57:27;;;;;;;;;;;;;;;;;;5006470;28;20283;-33
2022/10/08 10:59:52;;;;;;;;;;;;;;;;;;5004300;28;20108;-33
2022/10/08 11:02:17;;;;;;;;;;;;;;;;;;5001574;28;19921;-33
2022/10/08 11:04:42;;;;;;;;;;;;;;;;;;5005158;28;20405;-33
2022/10/08 11:07:07;;;;;;;;;;;;;;;;;;5004196;28;20027;-33
2022/10/08 11:09:33;;;;;;;;;;;;;;;;;;5004682;28;20008;-33
2022/10/08 11:11:58;;;;;;;;;;;;;;;;;;5005197;28;19921;-33
2022/10/08 11:14:23;;;;;;;;;;;;;;;;;;5005040;28;20353;-33
2022/10/08 11:16:48;;;;;;;;;;;;;;;;;;5004920;28;19924;-33
2022/10/08 11:19:13;;;;;;;;;;;;;;;;;;5002398;28;19929;-33
2022/10/08 11:21:38;;;;;;;;;;;;;;;;;;5002356;28;19963;-33
2022/10/08 11:24:04;;;;;;;;;;;;;;;;;;5005905;28;19945;-33
2022/10/08 11:26:29;;;;;;;;;;;;;;;;;;5003311;28;19922;-33
2022/10/08 11:28:54;;;;;;;;;;;;;;;;;;5006960;28;19917;-33
2022/10/08 11:31:19;;;;;;;;;;;;;;;;;;5006591;28;19917;-33
2022/10/08 11:33:44;;;;;;;;;;;;;;;;;;5002951;28;21002;-33
2022/10/08 11:36:09;;;;;;;;;;;;;;;;;;5006674;28;19926;-33
2022/10/08 11:38:35;;;;;;;;;;;;;;;;;;5000041;28;19925;-33
2022/10/08 11:41:00;;;;;;;;;;;;;;;;;;5000952;28;20311;-34
2022/10/08 11:43:25;;;;;;;;;;;;;;;;;;4999897;28;19928;-35
2022/10/08 11:45:52;;;;;;;;;;;;;;;;;;4998444;28;19921;-35
2022/10/08 11:48:17;;;;;;;;;;;;;;;;;;5001124;28;19917;-35
2022/10/08 11:50:42;;;;;;;;;;;;;;;;;;4995509;28;19925;-35
2022/10/08 11:53:07;;;;;;;;;;;;;;;;;;5000331;28;20454;-35
2022/10/08 11:55:32;;;;;;;;;;;;;;;;;;5002685;28;20044;-35
2022/10/08 11:57:58;;;;;;;;;;;;;;;;;;4999175;28;19924;-34
2022/10/08 12:00:23;;;;;;;;;;;;;;;;;;5000854;28;19918;-34
2022/10/08 12:02:48;;;;;;;;;;;;;;;;;;5001274;28;19918;-35
2022/10/08 12:05:13;;;;;;;;;;;;;;;;;;4999220;28;19944;-35
2022/10/08 12:07:39;;;;;;;;;;;;;;;;;;4997528;28;19925;-34
2022/10/08 12:10:04;;;;;;;;;;;;;;;;;;5002112;28;19913;-34
2022/10/08 12:12:29;;;;;;;;;;;;;;;;;;4999771;28;19922;-34
2022/10/08 12:14:54;;;;;;;;;;;;;;;;;;5001560;28;19969;-35
2022/10/08 12:17:19;;;;;;;;;;;;;;;;;;4996917;28;19929;-34
2022/10/08 12:19:44;;;;;;;;;;;;;;;;;;4998567;28;20382;-35
2022/10/08 12:22:09;;;;;;;;;;;;;;;;;;5002498;28;19913;-34
2022/10/08 12:24:35;;;;;;;;;;;;;;;;;;4997857;28;19972;-35
2022/10/08 12:27:00;;;;;;;;;;;;;;;;;;5000285;28;20685;-35
2022/10/08 12:29:25;;;;;;;;;;;;;;;;;;5001223;28;19964;-35
2022/10/08 12:31:50;;;;;;;;;;;;;;;;;;5001568;28;20399;-35
2022/10/08 12:34:15;;;;;;;;;;;;;;;;;;4996572;28;19968;-35
2022/10/08 12:36:40;;;;;;;;;;;;;;;;;;4999916;28;19917;-34
2022/10/08 12:39:06;;;;;;;;;;;;;;;;;;4998505;28;19921;-35
2022/10/08 12:41:31;;;;;;;;;;;;;;;;;;4998717;28;19964;-34
2022/10/08 12:43:56;;;;;;;;;;;;;;;;;;4999415;28;19925;-34
2022/10/08 12:46:21;;;;;;;;;;;;;;;;;;4997825;28;19968;-35
2022/10/08 12:48:46;;;;;;;;;;;;;;;;;;5002969;28;19921;-34
2022/10/08 12:51:11;;;;;;;;;;;;;;;;;;4992094;28;19918;-35
2022/10/08 12:53:37;;;;;;;;;;;;;;;;;;4993495;28;19925;-35
2022/10/08 12:56:02;;;;;;;;;;;;;;;;;;4999179;28;20307;-34
2022/10/08 12:58:28;;;;;;;;;;;;;;;;;;4999039;28;19917;-34
2022/10/08 13:00:53;;;;;;;;;;;;;;;;;;4999144;28;20295;-36
2022/10/08 13:03:20;;;;;;;;;;;;;;;;;;5001984;28;19918;-35
2022/10/08 13:05:46;;;;;;;;;;;;;;;;;;4995949;28;19922;-35
2022/10/08 13:08:11;;;;;;;;;;;;;;;;;;4999214;28;19922;-35
2022/10/08 13:10:36;;;;;;;;;;;;;;;;;;4998930;28;19928;-35
2022/10/08 13:13:02;;;;;;;;;;;;;;;;;;5000872;28;20403;-35
2022/10/08 13:15:27;;;;;;;;;;;;;;;;;;5000880;28;19923;-34
2022/10/08 13:17:52;;;;;;;;;;;;;;;;;;5001121;28;19913;-36
2022/10/08 13:20:17;;;;;;;;;;;;;;;;;;4996007;28;20403;-35
2022/10/08 13:22:43;;;;;;;;;;;;;;;;;;4999679;28;19917;-34
2022/10/08 13:25:08;;;;;;;;;;;;;;;;;;4999808;28;19968;-34
2022/10/08 13:27:34;;;;;;;;;;;;;;;;;;4997079;28;19917;-35
2022/10/08 13:29:59;;;;;;;;;;;;;;;;;;4999003;28;20268;-35
2022/10/08 13:32:24;;;;;;;;;;;;;;;;;;4999529;28;20008;-35
2022/10/08 13:34:50;;;;;;;;;;;;;;;;;;4997054;28;20309;-34
2022/10/08 13:37:15;;;;;;;;;;;;;;;;;;4997774;28;19992;-35
2022/10/08 13:39:40;;;;;;;;;;;;;;;;;;5001767;28;19996;-34
2022/10/08 13:42:05;;;;;;;;;;;;;;;;;;5001549;28;20400;-34
2022/10/08 13:44:30;;;;;;;;;;;;;;;;;;4994333;28;19922;-34
2022/10/08 13:46:56;;;;;;;;;;;;;;;;;;4998782;28;20375;-35
2022/10/08 13:49:21;;;;;;;;;;;;;;;;;;4995341;28;19951;-35
2022/10/08 13:51:46;;;;;;;;;;;;;;;;;;4996894;28;19917;-35
2022/10/08 13:54:11;;;;;;;;;;;;;;;;;;4999243;28;20080;-34
2022/10/08 13:56:36;;;;;;;;;;;;;;;;;;4997713;28;19925;-34
2022/10/08 13:59:01;;;;;;;;;;;;;;;;;;4996986;28;19924;-35
2022/10/08 14:01:27;;;;;;;;;;;;;;;;;;5001536;28;19922;-35
2022/10/08 14:03:52;;;;;;;;;;;;;;;;;;4999719;28;19917;-34
2022/10/08 14:06:17;;;;;;;;;;;;;;;;;;4999813;28;19922;-35
2022/10/08 14:08:42;;;;;;;;;;;;;;;;;;5002505;28;20040;-35
2022/10/08 14:11:07;;;;;;;;;;;;;;;;;;5002016;28;19928;-34
2022/10/08 14:13:33;;;;;;;;;;;;;;;;;;5000985;28;19963;-35
2022/10/08 14:15:58;;;;;;;;;;;;;;;;;;5002538;28;19917;-35
2022/10/08 14:18:23;;;;;;;;;;;;;;;;;;5000183;28;20295;-35
2022/10/08 14:20:48;;;;;;;;;;;;;;;;;;5000622;28;20008;-35
2022/10/08 14:23:13;;;;;;;;;;;;;;;;;;5001427;28;19917;-35
2022/10/08 14:25:38;;;;;;;;;;;;;;;;;;4998520;28;19917;-36
2022/10/08 14:28:04;;;;;;;;;;;;;;;;;;4997535;28;19941;-35
2022/10/08 14:30:29;;;;;;;;;;;;;;;;;;4996868;28;20019;-35
2022/10/08 14:32:54;;;;;;;;;;;;;;;;;;5000288;28;20375;-34
2022/10/08 14:35:20;;;;;;;;;;;;;;;;;;5000365;28;20025;-35
2022/10/08 14:37:45;;;;;;;;;;;;;;;;;;5002843;28;19918;-35
2022/10/08 14:40:10;;;;;;;;;;;;;;;;;;4998077;28;19956;-34
2022/10/08 14:42:35;;;;;;;;;;;;;;;;;;4998885;28;20262;-35
2022/10/08 14:45:00;;;;;;;;;;;;;;;;;;4998683;28;19921;-35
2022/10/08 14:47:26;;;;;;;;;;;;;;;;;;4999799;28;20359;-34
2022/10/08 14:49:51;;;;;;;;;;;;;;;;;;5001411;28;19932;-34
2022/10/08 14:52:16;;;;;;;;;;;;;;;;;;5000152;28;19917;-35
2022/10/08 14:54:41;;;;;;;;;;;;;;;;;;4999355;28;19917;-36
2022/10/08 14:57:07;;;;;;;;;;;;;;;;;;5000982;28;19913;-34
2022/10/08 14:59:32;;;;;;;;;;;;;;;;;;5001001;28;19968;-35
2022/10/08 15:01:57;;;;;;;;;;;;;;;;;;5003079;28;19928;-34
2022/10/08 15:04:22;;;;;;;;;;;;;;;;;;4998817;28;20283;-34
2022/10/08 15:06:47;;;;;;;;;;;;;;;;;;4995775;28;20212;-35
2022/10/08 15:09:14;;;;;;;;;;;;;;;;;;4999880;28;19921;-35
2022/10/08 15:11:39;;;;;;;;;;;;;;;;;;5001108;28;19927;-35
2022/10/08 15:14:04;;;;;;;;;;;;;;;;;;5002269;28;19914;-35
2022/10/08 15:16:29;;;;;;;;;;;;;;;;;;5003329;28;19925;-34
2022/10/08 15:18:54;;;;;;;;;;;;;;;;;;5000313;28;20055;-35
2022/10/08 15:21:20;;;;;;;;;;;;;;;;;;5005000;28;19917;-35
2022/10/08 15:23:45;;;;;;;;;;;;;;;;;;5005997;28;20379;-34
2022/10/08 15:26:10;;;;;;;;;;;;;;;;;;5003626;28;19955;-34
2022/10/08 15:28:35;;;;;;;;;;;;;;;;;;5000928;28;20339;-35
2022/10/08 15:31:00;;;;;;;;;;;;;;;;;;5002696;28;19956;-35
2022/10/08 15:33:26;;;;;;;;;;;;;;;;;;5000298;28;19964;-35
2022/10/08 15:35:51;;;;;;;;;;;;;;;;;;5002801;28;19926;-34
2022/10/08 15:38:16;;;;;;;;;;;;;;;;;;5006509;28;20341;-35
2022/10/08 15:40:41;;;;;;;;;;;;;;;;;;5003518;28;20304;-35
2022/10/08 15:43:06;;;;;;;;;;;;;;;;;;5000828;28;19914;-34
2022/10/08 15:45:32;;;;;;;;;;;;;;;;;;4999747;28;19948;-35
2022/10/08 15:47:57;;;;;;;;;;;;;;;;;;5002451;28;19917;-35
2022/10/08 15:50:22;;;;;;;;;;;;;;;;;;5000585;28;19953;-34
2022/10/08 15:52:47;;;;;;;;;;;;;;;;;;4993436;28;20068;-34
2022/10/08 15:55:12;;;;;;;;;;;;;;;;;;4996310;28;19929;-34
2022/10/08 15:57:37;;;;;;;;;;;;;;;;;;5002231;28;20455;-34
2022/10/08 16:00:03;;;;;;;;;;;;;;;;;;5003712;28;19917;-35
2022/10/08 16:02:28;;;;;;;;;;;;;;;;;;5001637;28;19970;-35
2022/10/08 16:04:53;;;;;;;;;;;;;;;;;;5001552;28;19929;-34
2022/10/08 16:07:18;;;;;;;;;;;;;;;;;;4999771;28;20010;-35
2022/10/08 16:09:43;;;;;;;;;;;;;;;;;;5002777;28;20282;-35
2022/10/08 16:12:09;;;;;;;;;;;;;;;;;;5002280;28;19925;-35
2022/10/08 16:14:34;;;;;;;;;;;;;;;;;;5001319;28;19921;-34
2022/10/08 16:16:59;;;;;;;;;;;;;;;;;;5003213;28;19914;-35
2022/10/08 16:19:24;;;;;;;;;;;;;;;;;;5000924;28;19917;-35
2022/10/08 16:21:49;;;;;;;;;;;;;;;;;;5001271;28;19924;-35
2022/10/08 16:24:14;;;;;;;;;;;;;;;;;;5000799;28;19917;-34
2022/10/08 16:26:40;;;;;;;;;;;;;;;;;;5001704;28;20383;-35
2022/10/08 16:29:05;;;;;;;;;;;;;;;;;;5001795;28;19914;-34
2022/10/08 16:31:30;;;;;;;;;;;;;;;;;;5003935;28;19917;-34